createdAt,value
2022-08-21T00:04:10.728Z,84.88
2022-08-21T00:09:13.917Z,84.48
2022-08-21T00:14:15.827Z,83.06
2022-08-21T00:19:17.613Z,82.83
2022-08-21T00:24:21.478Z,83.00
2022-08-21T00:29:23.231Z,83.05
2022-08-21T00:34:25.655Z,83.54
2022-08-21T00:39:29.019Z,83.19
2022-08-21T00:44:30.794Z,82.73
2022-08-21T00:49:32.542Z,83.43
2022-08-21T00:54:36.264Z,83.05
2022-08-21T00:59:44.343Z,83.80
2022-08-21T01:04:46.616Z,83.76
2022-08-21T01:09:49.955Z,83.58
2022-08-21T01:14:52.000Z,84.01
2022-08-21T01:19:54.201Z,84.52
2022-08-21T01:24:57.331Z,85.30
2022-08-21T01:30:06.550Z,85.29
2022-08-21T01:35:09.949Z,85.14
2022-08-21T01:40:16.187Z,85.79
2022-08-21T01:45:18.194Z,85.87
2022-08-21T01:50:20.957Z,85.28
2022-08-21T01:55:24.388Z,85.40
2022-08-21T02:00:27.053Z,86.15
2022-08-21T02:05:28.880Z,86.45
2022-08-21T02:10:32.965Z,85.20
2022-08-21T02:15:34.717Z,85.32
2022-08-21T02:20:41.202Z,84.32
2022-08-21T02:25:44.318Z,83.46
2022-08-21T02:30:48.118Z,83.55
2022-08-21T02:35:50.318Z,82.44
2022-08-21T02:40:54.908Z,82.55
2022-08-21T02:45:58.329Z,82.72
2022-08-21T02:51:03.080Z,83.39
2022-08-21T02:56:09.760Z,83.06
2022-08-21T03:01:12.957Z,81.85
2022-08-21T03:06:17.026Z,81.78
2022-08-21T03:11:20.205Z,81.06
2022-08-21T03:16:22.056Z,81.68
2022-08-21T03:21:23.871Z,81.67
2022-08-21T03:26:28.004Z,81.37
2022-08-21T03:31:30.002Z,82.22
2022-08-21T03:36:31.801Z,81.97
2022-08-21T03:41:35.113Z,81.96
2022-08-21T03:46:36.869Z,81.54
2022-08-21T03:51:38.753Z,81.09
2022-08-21T03:56:41.945Z,80.94
2022-08-21T04:01:52.475Z,81.10
2022-08-21T04:06:54.742Z,80.69
2022-08-21T04:11:59.816Z,81.65
2022-08-21T04:17:01.575Z,81.78
2022-08-21T04:22:03.414Z,82.54
2022-08-21T04:27:06.596Z,83.52
2022-08-21T04:32:08.650Z,84.26
2022-08-21T04:37:10.652Z,83.71
2022-08-21T04:42:13.890Z,83.08
2022-08-21T04:47:15.725Z,82.60
2022-08-21T04:52:20.187Z,82.33
2022-08-21T04:57:23.352Z,82.30
2022-08-21T05:02:42.600Z,80.45
2022-08-21T05:07:46.459Z,81.23
2022-08-21T05:12:50.214Z,80.76
2022-08-21T05:17:53.775Z,81.65
2022-08-21T05:23:09.039Z,81.40
2022-08-21T05:28:12.465Z,80.56
2022-08-21T05:33:14.238Z,80.60
2022-08-21T05:38:18.360Z,81.23
2022-08-21T05:43:22.831Z,78.12
2022-08-21T05:48:26.037Z,77.28
2022-08-21T05:53:27.753Z,76.85
2022-08-21T05:58:32.856Z,74.94
2022-08-21T06:03:37.628Z,75.35
2022-08-21T06:08:40.034Z,74.25
2022-08-21T06:13:43.233Z,73.40
2022-08-21T06:18:46.072Z,74.03
2022-08-21T06:23:48.400Z,72.10
2022-08-21T06:28:52.077Z,72.56
2022-08-21T06:33:54.264Z,72.30
2022-08-21T06:38:57.842Z,71.70
2022-08-21T06:44:01.316Z,70.56
2022-08-21T06:49:04.348Z,70.26
2022-08-21T06:54:08.798Z,69.88
2022-08-21T06:59:12.212Z,68.95
2022-08-21T07:04:14.184Z,67.78
2022-08-21T07:09:16.324Z,66.39
2022-08-21T07:14:20.219Z,67.48
2022-08-21T07:19:22.377Z,66.23
2022-08-21T07:24:24.400Z,67.04
2022-08-21T07:29:27.922Z,64.35
2022-08-21T07:34:29.666Z,66.18
2022-08-21T07:39:31.743Z,64.56
2022-08-21T07:44:35.063Z,63.54
2022-08-21T07:49:38.317Z,62.14
2022-08-21T07:54:40.328Z,60.05
2022-08-21T07:59:43.859Z,59.62
2022-08-21T08:04:51.009Z,58.02
2022-08-21T08:09:53.915Z,57.02
2022-08-21T08:14:57.355Z,57.54
2022-08-21T08:20:01.044Z,56.80
2022-08-21T08:25:08.793Z,57.46
2022-08-21T08:30:15.534Z,58.38
2022-08-21T08:35:23.648Z,56.24
2022-08-21T08:40:45.365Z,55.08
2022-08-21T08:45:51.722Z,54.63
2022-08-21T08:50:56.832Z,52.74
2022-08-21T08:56:01.482Z,53.44
2022-08-21T09:01:10.031Z,51.85
2022-08-21T09:06:20.858Z,51.37
2022-08-21T09:11:30.243Z,51.62
2022-08-21T09:16:47.913Z,48.77
2022-08-21T09:21:59.660Z,49.16
2022-08-21T09:27:08.326Z,51.24
2022-08-21T09:32:18.806Z,48.94
2022-08-21T09:37:20.899Z,49.89
2022-08-21T09:42:25.590Z,48.03
2022-08-21T09:47:28.921Z,47.30
2022-08-21T09:52:30.895Z,45.38
2022-08-21T09:57:32.720Z,44.54
2022-08-21T10:02:36.721Z,41.93
2022-08-21T10:07:39.128Z,41.09
2022-08-21T10:12:50.839Z,37.99
2022-08-21T10:18:04.778Z,40.30
2022-08-21T10:23:27.962Z,40.05
2022-08-21T10:28:37.699Z,37.43
2022-08-21T10:33:52.497Z,37.77
2022-08-21T10:39:25.309Z,37.76
2022-08-21T10:44:29.530Z,38.67
2022-08-21T10:49:40.411Z,38.64
2022-08-21T11:00:17.953Z,39.55
2022-08-21T11:05:28.806Z,39.77
2022-08-21T11:10:37.309Z,38.51
2022-08-21T11:15:49.828Z,37.22
2022-08-21T11:21:02.121Z,37.29
2022-08-21T11:26:10.480Z,35.52
2022-08-21T11:31:24.594Z,37.52
2022-08-21T11:36:36.695Z,37.93
2022-08-21T11:41:43.083Z,35.70
2022-08-21T11:46:50.968Z,38.19
2022-08-21T11:52:03.834Z,36.65
2022-08-21T11:57:12.981Z,37.92
2022-08-21T12:02:19.335Z,37.57
2022-08-21T12:07:35.211Z,38.16
2022-08-21T12:12:39.399Z,40.01
2022-08-21T12:17:52.133Z,40.37
2022-08-21T12:23:05.412Z,40.86
2022-08-21T12:28:09.926Z,40.71
2022-08-21T12:33:23.618Z,39.79
2022-08-21T12:38:29.402Z,39.43
2022-08-21T12:43:36.879Z,38.69
2022-08-21T12:48:45.270Z,39.88
2022-08-21T12:53:51.251Z,39.88
2022-08-21T12:58:56.847Z,40.56
2022-08-21T13:04:04.923Z,40.41
2022-08-21T13:09:12.464Z,39.67
2022-08-21T13:14:18.800Z,39.86
2022-08-21T13:19:24.172Z,39.46
2022-08-21T13:24:46.196Z,39.69
2022-08-21T13:29:53.280Z,36.91
2022-08-21T13:34:56.158Z,41.26
2022-08-21T13:39:59.540Z,40.91
2022-08-21T13:45:01.369Z,40.87
2022-08-21T13:50:04.285Z,40.17
2022-08-21T13:55:14.635Z,42.69
2022-08-21T14:00:19.526Z,42.96
2022-08-21T14:05:23.653Z,43.31
2022-08-21T14:10:26.722Z,44.58
2022-08-21T14:15:31.022Z,45.08
2022-08-21T14:20:36.052Z,44.25
2022-08-21T14:25:44.229Z,44.67
2022-08-21T14:30:47.795Z,44.74
2022-08-21T14:35:53.346Z,44.84
2022-08-21T14:41:01.038Z,43.91
2022-08-21T14:46:02.892Z,44.83
2022-08-21T14:51:05.023Z,45.01
2022-08-21T14:56:08.572Z,44.52
2022-08-21T15:01:12.747Z,44.12
2022-08-21T15:06:15.076Z,43.86
2022-08-21T15:11:42.241Z,44.93
2022-08-21T15:16:43.159Z,43.53
2022-08-21T15:21:44.895Z,46.25
2022-08-21T15:26:48.143Z,44.24
2022-08-21T15:31:55.967Z,44.73
2022-08-21T15:36:58.859Z,43.64
2022-08-21T15:42:10.541Z,44.44
2022-08-21T15:47:15.428Z,43.63
2022-08-21T15:52:20.388Z,44.61
2022-08-21T16:02:51.322Z,41.70
2022-08-21T16:07:53.440Z,41.32
2022-08-21T16:13:01.989Z,41.88
2022-08-21T16:18:05.794Z,42.72
2022-08-21T16:23:07.661Z,42.23
2022-08-21T16:28:15.378Z,43.43
2022-08-21T16:33:23.445Z,42.06
2022-08-21T16:38:25.214Z,42.32
2022-08-21T16:43:30.606Z,41.33
2022-08-21T16:48:32.368Z,41.98
2022-08-21T16:53:34.314Z,42.61
2022-08-21T16:58:41.085Z,43.86
2022-08-21T17:03:45.080Z,42.33
2022-08-21T17:08:47.492Z,42.53
2022-08-21T17:13:58.360Z,42.75
2022-08-21T17:19:00.486Z,43.33
2022-08-21T17:24:02.577Z,44.33
2022-08-21T17:29:05.799Z,44.28
2022-08-21T17:34:07.774Z,44.23
2022-08-21T17:39:09.681Z,45.63
2022-08-21T17:44:18.677Z,47.88
2022-08-21T17:49:20.742Z,46.20
2022-08-21T17:54:22.894Z,49.12
2022-08-21T17:59:26.897Z,49.95
2022-08-21T18:04:28.909Z,50.11
2022-08-21T18:09:32.815Z,52.70
2022-08-21T18:14:38.330Z,54.44
2022-08-21T18:19:49.363Z,56.54
2022-08-21T18:24:51.610Z,58.32
2022-08-21T18:29:58.785Z,58.73
2022-08-21T18:35:03.195Z,60.03
2022-08-21T18:40:06.994Z,61.05
2022-08-21T18:45:14.077Z,62.32
2022-08-21T18:50:19.731Z,64.79
2022-08-21T18:55:22.681Z,66.41
2022-08-21T19:00:32.174Z,67.48
2022-08-21T19:05:36.421Z,69.12
2022-08-21T19:10:42.738Z,69.01
2022-08-21T19:15:50.388Z,70.79
2022-08-21T19:20:52.571Z,71.44
2022-08-21T19:26:00.329Z,72.59
2022-08-21T19:31:10.649Z,72.57
2022-08-21T19:36:13.916Z,72.99
2022-08-21T19:41:17.538Z,73.23
2022-08-21T19:46:25.520Z,74.00
2022-08-21T19:51:28.469Z,74.10
2022-08-21T19:56:33.040Z,74.26
2022-08-21T20:01:39.920Z,74.97
2022-08-21T20:06:42.941Z,76.80
2022-08-21T20:11:50.381Z,76.28
2022-08-21T20:16:54.734Z,77.94
2022-08-21T20:21:56.761Z,77.64
2022-08-21T20:26:59.475Z,77.47
2022-08-21T20:32:03.485Z,78.11
2022-08-21T20:37:05.715Z,79.30
2022-08-21T20:42:08.907Z,79.24
2022-08-21T20:47:12.121Z,78.95
2022-08-21T20:52:16.259Z,78.71
2022-08-21T20:57:22.149Z,80.01
2022-08-21T21:02:36.166Z,80.09
2022-08-21T21:07:53.059Z,80.38
2022-08-21T21:13:00.609Z,80.91
2022-08-21T21:18:13.175Z,81.57
2022-08-21T21:23:24.915Z,81.36
2022-08-21T21:28:35.733Z,81.30
2022-08-21T21:33:38.887Z,81.55
2022-08-21T21:44:23.879Z,82.20
2022-08-21T21:49:35.442Z,82.18
2022-08-21T21:54:53.641Z,81.99
2022-08-21T22:00:01.543Z,83.30
2022-08-21T22:05:19.849Z,83.27
2022-08-21T22:16:10.007Z,83.84
2022-08-21T22:21:29.495Z,84.05
2022-08-21T22:26:53.651Z,85.18
2022-08-21T22:32:16.124Z,85.10
2022-08-21T22:37:46.525Z,85.27
2022-08-21T22:43:07.846Z,84.49
2022-08-21T22:48:25.452Z,85.22
2022-08-21T22:53:41.103Z,85.20
2022-08-21T22:59:01.166Z,85.31
2022-08-21T23:04:28.636Z,85.56
2022-08-21T23:09:53.399Z,86.48
2022-08-21T23:14:59.921Z,86.99
2022-08-21T23:20:20.979Z,86.50
2022-08-21T23:26:00.382Z,86.69
2022-08-21T23:31:29.096Z,86.74
2022-08-21T23:36:59.269Z,86.80
2022-08-21T23:42:31.729Z,86.64
2022-08-21T23:47:44.060Z,86.84
2022-08-21T23:53:23.960Z,86.94
2022-08-21T23:58:41.809Z,86.99
